createdAt,value
2022-10-18T00:04:08.499Z,10.25
2022-10-18T00:09:06.244Z,10.28
2022-10-18T00:14:05.756Z,10.61
2022-10-18T00:19:14.458Z,9.89
2022-10-18T00:24:15.211Z,9.72
2022-10-18T00:29:16.073Z,10.31
2022-10-18T00:34:16.797Z,10.47
2022-10-18T00:39:20.391Z,9.80
2022-10-18T00:44:57.516Z,10.48
2022-10-18T00:50:00.617Z,10.28
2022-10-18T00:55:02.877Z,10.30
2022-10-18T01:00:03.995Z,9.99
2022-10-18T01:05:00.934Z,10.29
2022-10-18T01:10:30.712Z,10.37
2022-10-18T01:15:43.970Z,9.91
2022-10-18T01:21:19.622Z,9.99
2022-10-18T01:26:34.448Z,10.31
2022-10-18T01:31:35.083Z,10.16
2022-10-18T01:36:35.782Z,10.12
2022-10-18T01:41:46.897Z,10.13
2022-10-18T01:46:45.949Z,9.80
2022-10-18T01:51:42.813Z,10.06
2022-10-18T01:56:47.588Z,9.73
2022-10-18T02:02:02.823Z,10.03
2022-10-18T02:07:07.382Z,9.53
2022-10-18T02:12:10.471Z,9.67
2022-10-18T02:17:12.040Z,9.64
2022-10-18T02:22:20.092Z,9.66
2022-10-18T02:27:17.236Z,9.88
2022-10-18T02:32:20.686Z,9.49
2022-10-18T02:37:18.161Z,9.86
2022-10-18T02:42:15.679Z,9.50
2022-10-18T02:47:20.420Z,9.66
2022-10-18T02:52:17.433Z,9.70
2022-10-18T02:57:19.566Z,9.74
2022-10-18T03:02:17.402Z,9.38
2022-10-18T03:07:21.170Z,9.04
2022-10-18T03:12:24.475Z,9.64
2022-10-18T03:17:25.225Z,9.32
2022-10-18T03:27:24.160Z,8.81
2022-10-18T03:32:30.281Z,9.14
2022-10-18T03:37:32.628Z,9.07
2022-10-18T03:42:32.323Z,9.28
2022-10-18T03:47:32.999Z,8.64
2022-10-18T03:52:30.322Z,8.89
2022-10-18T03:57:27.598Z,8.83
2022-10-18T04:02:25.207Z,8.98
2022-10-18T04:07:41.236Z,9.27
2022-10-18T04:12:38.157Z,9.24
2022-10-18T04:17:47.343Z,9.16
2022-10-18T04:23:11.222Z,8.38
2022-10-18T04:28:51.618Z,8.65
2022-10-18T04:34:27.132Z,8.69
2022-10-18T04:39:27.729Z,9.14
2022-10-18T04:44:25.048Z,8.92
2022-10-18T04:49:22.245Z,8.81
2022-10-18T04:54:22.866Z,8.99
2022-10-18T04:59:33.885Z,9.10
2022-10-18T05:09:54.514Z,9.28
2022-10-18T05:14:53.303Z,9.37
2022-10-18T05:20:10.910Z,9.26
2022-10-18T05:25:21.320Z,9.12
2022-10-18T05:30:28.593Z,9.20
2022-10-18T05:35:28.453Z,9.60
2022-10-18T05:40:29.343Z,9.69
2022-10-18T05:45:33.281Z,9.36
2022-10-18T05:51:03.714Z,10.13
2022-10-18T05:56:03.546Z,9.43
2022-10-18T06:01:06.320Z,9.81
2022-10-18T06:06:23.525Z,9.96
2022-10-18T06:12:31.394Z,10.08
2022-10-18T06:18:09.730Z,10.11
2022-10-18T06:23:44.139Z,10.35
2022-10-18T06:28:41.570Z,11.18
2022-10-18T06:33:39.876Z,11.14
2022-10-18T06:38:36.965Z,11.38
2022-10-18T06:43:40.238Z,11.52
2022-10-18T06:48:41.750Z,12.02
2022-10-18T06:53:44.581Z,12.09
2022-10-18T06:59:22.975Z,12.32
2022-10-18T07:04:22.333Z,12.10
2022-10-18T07:09:25.519Z,12.26
2022-10-18T07:14:26.915Z,12.65
2022-10-18T07:19:26.687Z,12.78
2022-10-18T07:24:23.782Z,13.11
2022-10-18T07:29:25.931Z,13.16
2022-10-18T07:34:28.362Z,12.83
2022-10-18T07:39:42.850Z,13.41
2022-10-18T07:45:13.832Z,13.02
2022-10-18T07:50:52.608Z,13.93
2022-10-18T07:56:27.475Z,13.73
2022-10-18T08:01:27.724Z,13.72
2022-10-18T08:06:24.961Z,13.73
2022-10-18T08:11:26.065Z,14.59
2022-10-18T08:16:24.678Z,14.75
2022-10-18T08:21:21.772Z,14.69
2022-10-18T08:26:51.714Z,14.93
2022-10-18T08:32:11.889Z,15.25
2022-10-18T08:37:56.752Z,16.82
2022-10-18T08:43:03.421Z,19.22
2022-10-18T08:48:01.819Z,21.18
2022-10-18T08:53:06.270Z,22.95
2022-10-18T08:59:03.443Z,23.92
2022-10-18T09:04:35.011Z,25.00
2022-10-18T09:09:58.425Z,25.24
2022-10-18T09:15:17.709Z,25.74
2022-10-18T09:20:59.395Z,25.86
2022-10-18T09:26:40.281Z,26.44
2022-10-18T09:31:50.088Z,26.89
2022-10-18T09:36:51.175Z,26.59
2022-10-18T09:42:12.095Z,26.26
2022-10-18T09:47:17.145Z,26.39
2022-10-18T09:52:19.059Z,26.55
2022-10-18T09:57:48.452Z,26.11
2022-10-18T10:03:07.130Z,26.33
2022-10-18T10:58:33.334Z,20.66
2022-10-18T11:38:33.231Z,20.05
2022-10-18T12:13:28.039Z,19.75
2022-10-18T12:33:33.476Z,18.83
2022-10-18T13:13:57.525Z,19.51
2022-10-18T13:39:47.333Z,18.97
2022-10-18T15:04:39.599Z,17.95
2022-10-18T15:16:36.522Z,17.70
2022-10-18T17:21:15.638Z,13.65
2022-10-18T20:12:02.591Z,11.80
2022-10-18T20:30:41.138Z,11.91
2022-10-18T20:37:03.703Z,12.20
2022-10-18T20:56:11.277Z,12.47
2022-10-18T21:03:02.473Z,11.34
2022-10-18T21:22:04.509Z,11.63
2022-10-18T21:28:00.906Z,11.43
2022-10-18T21:33:59.788Z,11.12
2022-10-18T21:47:41.377Z,11.92
2022-10-18T21:53:02.323Z,11.17
2022-10-18T21:59:48.178Z,11.68
2022-10-18T22:05:37.770Z,11.11
2022-10-18T22:12:22.265Z,11.04
2022-10-18T22:17:58.406Z,11.07
2022-10-18T22:28:33.464Z,10.90
2022-10-18T22:33:47.072Z,11.74
2022-10-18T22:39:08.210Z,10.99
2022-10-18T22:44:32.583Z,10.76
2022-10-18T22:50:06.506Z,10.88
2022-10-18T22:55:51.297Z,10.66
2022-10-18T23:07:53.503Z,11.47
2022-10-18T23:14:13.146Z,10.54
2022-10-18T23:20:14.372Z,10.45
2022-10-18T23:25:36.227Z,10.69
2022-10-18T23:37:12.929Z,10.60
2022-10-18T23:42:43.844Z,10.63
2022-10-18T23:53:45.184Z,10.62
